Time;durP1;ratioP1;P1;durP2;ratioP2;P2;SDS_P1;SDS_P2;PMS_P1;PMS_P2;Temp;Humidity;BMP_temperature;BMP_pressure;BME280_temperature;BME280_humidity;BME280_pressure;Samples;Min_cycle;Max_cycle;Signal;HPM_P1;HPM_P2
2023/02/20 00:04:47;;;;;;;11.15;6.97;;;;;;;6.98;62.19;100982.06;10388128;28;20060;-81
2023/02/20 00:09:49;;;;;;;10.43;6.40;;;;;;;6.90;62.26;100973.63;10393559;28;20065;-81
2023/02/20 00:14:51;;;;;;;10.55;6.97;;;;;;;6.80;62.70;100980.84;10397204;28;20490;-81
2023/02/20 00:19:53;;;;;;;8.88;5.80;;;;;;;7.03;62.65;100983.66;10392170;28;20052;-81
2023/02/20 00:24:55;;;;;;;10.77;6.07;;;;;;;7.11;62.57;100970.44;10390735;28;20786;-80
2023/02/20 00:29:57;;;;;;;9.50;6.32;;;;;;;7.08;62.53;100973.13;10389000;28;20144;-80
2023/02/20 00:34:58;;;;;;;8.70;6.68;;;;;;;7.17;62.38;100978.06;10403175;28;20053;-80
2023/02/20 00:40:00;;;;;;;10.52;6.63;;;;;;;7.08;62.48;100958.34;10398311;28;20145;-80
2023/02/20 00:45:03;;;;;;;10.77;7.55;;;;;;;6.95;62.68;100950.97;10394495;28;20057;-81
2023/02/20 00:50:07;;;;;;;10.50;6.47;;;;;;;6.80;62.95;100946.19;10398538;28;20053;-81
2023/02/20 00:55:09;;;;;;;9.38;6.38;;;;;;;6.64;63.11;100939.72;10395815;28;20049;-81
2023/02/20 01:00:19;;;;;;;9.57;7.13;;;;;;;6.49;63.40;100943.56;10390631;28;20400;-80
2023/02/20 01:05:22;;;;;;;10.23;6.93;;;;;;;6.29;63.99;100945.84;10387322;28;20071;-81
2023/02/20 01:10:23;;;;;;;11.82;6.72;;;;;;;6.25;64.12;100942.50;10396619;28;20064;-81
2023/02/20 01:15:25;;;;;;;10.90;6.90;;;;;;;6.04;64.48;100945.59;10393031;28;21069;-80
2023/02/20 01:20:28;;;;;;;9.65;6.25;;;;;;;6.02;64.56;100938.75;10395624;28;20060;-81
2023/02/20 01:25:30;;;;;;;9.68;5.90;;;;;;;6.05;64.37;100934.34;10375731;28;20089;-81
2023/02/20 01:30:32;;;;;;;10.07;6.15;;;;;;;6.05;64.25;100931.72;10395574;28;20053;-80
2023/02/20 01:35:35;;;;;;;10.18;6.35;;;;;;;6.05;63.95;100925.69;10393409;28;21125;-80
2023/02/20 01:40:36;;;;;;;10.07;6.13;;;;;;;6.00;64.35;100928.38;10393145;28;20524;-80
2023/02/20 01:45:39;;;;;;;10.18;6.35;;;;;;;6.09;64.31;100922.97;10402564;28;20049;-80
2023/02/20 01:50:43;;;;;;;10.45;6.20;;;;;;;6.10;64.28;100916.88;10398264;28;20053;-80
2023/02/20 01:55:51;;;;;;;13.18;6.50;;;;;;;6.04;64.20;100909.25;10396505;28;20063;-80
2023/02/20 02:00:54;;;;;;;7.80;6.22;;;;;;;5.97;64.25;100912.03;10392358;28;20056;-81
2023/02/20 02:06:00;;;;;;;10.32;6.53;;;;;;;5.87;64.50;100910.56;10393729;28;20053;-80
2023/02/20 02:11:08;;;;;;;8.65;6.25;;;;;;;5.86;64.41;100907.13;10391943;28;20579;-79
2023/02/20 02:16:44;;;;;;;12.98;8.73;;;;;;;5.80;64.21;100903.84;10389079;28;20068;-79
2023/02/20 02:22:04;;;;;;;9.90;5.68;;;;;;;5.72;64.04;100906.59;10407398;28;20414;-80
2023/02/20 02:27:44;;;;;;;8.77;5.07;;;;;;;5.68;63.95;100915.34;10394590;28;20095;-80
2023/02/20 02:32:58;;;;;;;7.35;4.93;;;;;;;5.60;64.45;100900.84;10392807;28;20049;-80
2023/02/20 02:38:25;;;;;;;9.15;5.43;;;;;;;5.52;64.48;100894.13;10391481;28;20046;-80
2023/02/20 02:43:37;;;;;;;10.65;5.57;;;;;;;5.51;64.65;100894.16;10394300;28;20049;-80
2023/02/20 02:48:51;;;;;;;9.65;6.03;;;;;;;5.56;64.66;100889.69;10399842;28;20045;-79
2023/02/20 02:54:05;;;;;;;9.20;6.47;;;;;;;5.61;64.59;100884.41;10412370;28;20553;-79
2023/02/20 02:59:10;;;;;;;13.10;7.72;;;;;;;5.62;64.73;100873.13;10395655;28;20164;-80
2023/02/20 03:04:13;;;;;;;11.82;7.70;;;;;;;5.65;64.70;100863.53;10397775;28;20057;-80
2023/02/20 03:15:45;;;;;;;13.00;8.30;;;;;;;5.51;64.99;100876.00;10398743;28;20041;-80
2023/02/20 03:20:52;;;;;;;15.63;8.90;;;;;;;5.47;65.07;100869.19;10398959;28;20056;-80
2023/02/20 03:26:00;;;;;;;15.15;9.38;;;;;;;5.37;65.34;100865.94;10397017;28;20053;-80
2023/02/20 03:31:13;;;;;;;11.20;8.88;;;;;;;5.36;65.53;100865.97;10390954;28;20068;-80
2023/02/20 03:47:23;;;;;;;17.38;10.02;;;;;;;5.42;65.37;100847.69;10396596;28;20401;-80
2023/02/20 03:52:25;;;;;;;16.27;10.45;;;;;;;5.37;65.50;100833.97;10397586;28;20143;-79
2023/02/20 03:57:32;;;;;;;17.42;10.55;;;;;;;5.39;65.62;100837.38;10396545;28;20042;-79
2023/02/20 04:02:41;;;;;;;19.55;10.82;;;;;;;5.40;65.67;100829.56;10391513;28;20080;-80
2023/02/20 04:07:50;;;;;;;18.90;11.45;;;;;;;5.34;65.54;100832.31;10392784;28;20069;-79
2023/02/20 04:19:14;;;;;;;19.17;10.70;;;;;;;5.19;65.78;100831.78;10393159;28;20057;-80
2023/02/20 04:24:22;;;;;;;20.13;11.27;;;;;;;5.16;65.91;100831.88;10391823;28;20565;-80
2023/02/20 04:29:24;;;;;;;23.23;11.95;;;;;;;5.13;65.79;100824.16;10391327;28;20045;-80
2023/02/20 04:34:26;;;;;;;23.73;12.52;;;;;;;5.03;66.34;100835.63;10402926;28;20156;-80
2023/02/20 04:39:28;;;;;;;19.48;12.88;;;;;;;5.08;66.13;100834.66;10389734;28;20049;-80
2023/02/20 04:44:30;;;;;;;20.33;11.73;;;;;;;4.98;66.41;100838.34;10381822;28;20469;-80
2023/02/20 04:49:32;;;;;;;21.05;12.13;;;;;;;5.02;66.31;100841.72;10388549;28;20064;-79
2023/02/20 04:54:33;;;;;;;24.45;12.63;;;;;;;4.97;66.50;100830.59;10387760;28;20059;-80
2023/02/20 04:59:35;;;;;;;16.75;9.77;;;;;;;4.94;66.63;100830.69;10387417;28;20123;-79
2023/02/20 05:04:37;;;;;;;19.60;10.07;;;;;;;4.98;66.51;100834.91;10388584;28;20057;-80
2023/02/20 05:09:43;;;;;;;20.05;11.68;;;;;;;5.02;66.55;100841.72;10387854;28;20494;-80
2023/02/20 05:14:46;;;;;;;41.75;24.27;;;;;;;5.01;66.64;100832.22;10388094;28;20053;-80
2023/02/20 05:19:47;;;;;;;26.27;16.30;;;;;;;5.02;66.51;100827.03;10394781;28;20049;-80
2023/02/20 05:24:50;;;;;;;18.20;8.80;;;;;;;5.04;66.26;100824.41;10400203;28;20132;-80
2023/02/20 05:29:57;;;;;;;16.27;8.50;;;;;;;5.00;66.55;100820.16;10397494;28;20080;-80
2023/02/20 05:34:59;;;;;;;22.17;8.43;;;;;;;5.04;66.47;100821.81;10395246;28;20052;-80
2023/02/20 05:40:00;;;;;;;16.23;7.90;;;;;;;5.04;66.20;100820.06;10393391;28;20918;-80
2023/02/20 05:45:03;;;;;;;14.90;7.32;;;;;;;5.05;66.38;100815.72;10394899;28;20502;-81
2023/02/20 05:50:05;;;;;;;14.55;7.15;;;;;;;5.06;66.40;100809.66;10396495;28;20048;-81
2023/02/20 05:55:07;;;;;;;12.82;6.90;;;;;;;5.02;66.58;100808.03;10397094;28;20136;-81
2023/02/20 06:00:10;;;;;;;11.05;6.47;;;;;;;5.02;66.42;100810.63;10389115;28;20422;-81
2023/02/20 06:05:12;;;;;;;10.70;6.10;;;;;;;4.99;66.66;100806.34;10393725;28;20057;-81
2023/02/20 06:10:17;;;;;;;14.15;6.10;;;;;;;5.00;66.74;100791.66;10393732;28;20053;-81
2023/02/20 06:15:18;;;;;;;10.20;5.55;;;;;;;5.03;66.62;100791.56;10394717;28;20076;-81
2023/02/20 06:20:20;;;;;;;11.20;5.60;;;;;;;5.01;66.77;100790.75;10392211;28;20136;-81
2023/02/20 06:25:22;;;;;;;11.18;5.50;;;;;;;4.99;66.76;100792.53;10394941;28;20132;-81
2023/02/20 06:30:24;;;;;;;8.75;5.32;;;;;;;4.92;67.04;100793.56;10383314;28;20065;-80
2023/02/20 06:35:25;;;;;;;12.98;5.63;;;;;;;4.94;67.03;100797.84;10395574;28;20054;-80
2023/02/20 06:40:28;;;;;;;11.05;5.80;;;;;;;4.93;67.11;100793.53;10384799;28;20045;-81
2023/02/20 06:45:30;;;;;;;12.13;5.15;;;;;;;4.96;67.04;100790.03;10393695;28;20060;-81
2023/02/20 06:50:32;;;;;;;10.50;4.97;;;;;;;4.96;67.05;100785.69;10383271;28;20879;-82
2023/02/20 07:02:01;;;;;;;10.98;5.22;;;;;;;5.13;66.90;100803.41;10393790;28;20049;-82
2023/02/20 07:07:10;;;;;;;10.60;5.15;;;;;;;5.24;66.75;100798.84;10396525;28;20503;-82
2023/02/20 07:12:18;;;;;;;11.93;5.28;;;;;;;5.37;66.37;100801.09;10394348;28;20085;-83
2023/02/20 07:17:21;;;;;;;9.32;4.97;;;;;;;5.43;66.42;100789.72;10387485;28;20067;-83
2023/02/20 07:22:23;;;;;;;9.80;5.18;;;;;;;5.54;66.19;100790.28;10394178;28;20053;-83
2023/02/20 07:27:25;;;;;;;11.07;5.07;;;;;;;5.75;65.74;100784.56;10397526;28;20060;-84
2023/02/20 07:32:26;;;;;;;13.90;5.75;;;;;;;5.90;65.65;100781.53;10396649;28;20490;-84
2023/02/20 07:37:28;;;;;;;13.25;5.22;;;;;;;6.08;65.17;100775.00;10399733;28;20846;-84
2023/02/20 07:42:31;;;;;;;10.73;5.45;;;;;;;6.14;64.97;100765.25;10393684;28;20055;-84
2023/02/20 07:47:34;;;;;;;9.52;5.28;;;;;;;6.31;64.56;100751.81;10395595;28;20875;-84
2023/02/20 07:52:36;;;;;;;12.95;5.70;;;;;;;6.31;64.72;100751.81;10396690;28;20049;-84
2023/02/20 07:58:11;;;;;;;14.45;6.40;;;;;;;6.38;64.00;100752.50;10399171;28;20049;-84
2023/02/20 08:03:16;;;;;;;13.48;5.72;;;;;;;6.59;64.19;100747.53;10393627;28;20057;-84
2023/02/20 08:08:18;;;;;;;11.80;5.85;;;;;;;6.83;63.97;100738.13;10395711;28;20058;-84
2023/02/20 08:13:19;;;;;;;13.15;6.00;;;;;;;7.01;63.58;100734.91;10394520;28;20485;-84
2023/02/20 08:18:21;;;;;;;12.23;5.75;;;;;;;7.22;63.01;100730.78;10393933;28;20116;-84
2023/02/20 08:23:25;;;;;;;12.15;5.70;;;;;;;7.33;62.51;100726.03;10396156;28;20144;-84
2023/02/20 08:28:27;;;;;;;12.30;6.18;;;;;;;7.41;62.29;100727.47;10394777;28;20128;-83
2023/02/20 08:33:28;;;;;;;13.13;5.50;;;;;;;7.42;62.05;100734.41;10393383;28;20072;-83
2023/02/20 08:38:36;;;;;;;12.95;5.88;;;;;;;7.61;61.73;100726.81;10391687;28;20473;-83
2023/02/20 08:43:39;;;;;;;13.85;5.50;;;;;;;7.79;61.23;100724.38;10408486;28;20069;-83
2023/02/20 08:48:41;;;;;;;11.13;5.38;;;;;;;8.23;60.26;100725.41;10395362;28;20051;-84
2023/02/20 08:53:43;;;;;;;12.77;4.93;;;;;;;8.49;59.73;100727.00;10401021;28;20067;-83
2023/02/20 08:58:45;;;;;;;9.38;4.80;;;;;;;8.35;59.81;100732.75;10401298;28;20057;-83
2023/02/20 09:03:48;;;;;;;8.13;4.70;;;;;;;8.10;59.47;100746.75;10404466;28;20501;-84
2023/02/20 09:08:54;;;;;;;10.20;4.70;;;;;;;8.03;59.05;100741.75;10394731;28;20046;-83
2023/02/20 09:14:02;;;;;;;10.48;4.40;;;;;;;7.97;58.71;100741.97;10400837;28;20548;-84
2023/02/20 09:19:06;;;;;;;9.60;4.30;;;;;;;8.46;58.07;100748.84;10395199;28;20056;-84
2023/02/20 09:24:08;;;;;;;8.15;3.92;;;;;;;8.56;57.25;100750.19;10399314;28;20065;-84
2023/02/20 09:29:10;;;;;;;9.77;4.43;;;;;;;8.77;56.68;100758.97;10395187;28;20045;-84
2023/02/20 09:34:12;;;;;;;10.15;4.28;;;;;;;8.60;56.42;100759.59;10395634;28;20053;-83
2023/02/20 09:39:16;;;;;;;10.10;4.25;;;;;;;8.91;56.00;100761.88;10395744;28;20059;-84
2023/02/20 09:44:59;;;;;;;8.30;3.83;;;;;;;9.05;54.08;100754.34;10395279;28;20061;-83
2023/02/20 09:50:09;;;;;;;9.45;3.92;;;;;;;9.29;54.07;100750.72;10391115;28;20395;-82
2023/02/20 09:55:19;;;;;;;7.65;4.22;;;;;;;9.24;54.15;100747.44;10387785;28;20555;-83
2023/02/20 10:00:40;;;;;;;10.82;4.20;;;;;;;9.25;53.41;100743.06;10391779;28;20060;-83
2023/02/20 10:05:44;;;;;;;6.78;3.67;;;;;;;9.31;53.39;100748.03;10392726;28;20049;-83
2023/02/20 10:10:54;;;;;;;9.63;3.80;;;;;;;9.47;53.22;100742.09;10390300;28;20050;-83
2023/02/20 10:16:24;;;;;;;8.50;4.15;;;;;;;9.58;52.15;100734.66;10403088;28;20045;-84
2023/02/20 10:21:33;;;;;;;8.37;3.93;;;;;;;9.59;53.31;100719.84;10391686;28;20049;-85
2023/02/20 10:26:42;;;;;;;6.43;3.42;;;;;;;9.61;52.91;100718.00;10404437;28;20056;-84
2023/02/20 10:32:08;;;;;;;10.38;4.22;;;;;;;9.39;51.78;100712.00;10392696;28;20526;-85
2023/02/20 10:37:18;;;;;;;9.35;4.15;;;;;;;9.36;52.41;100710.38;10400052;28;20050;-84
2023/02/20 10:42:40;;;;;;;8.27;3.80;;;;;;;9.36;52.18;100705.16;10413237;28;20045;-84
2023/02/20 10:47:56;;;;;;;8.75;3.65;;;;;;;9.59;52.07;100707.63;10393344;28;20049;-84
2023/02/20 10:53:34;;;;;;;7.38;3.78;;;;;;;9.76;51.70;100695.63;10400245;28;20119;-84
2023/02/20 10:58:40;;;;;;;7.45;4.00;;;;;;;9.87;51.12;100685.56;10393716;28;20712;-84
2023/02/20 11:04:01;;;;;;;8.40;4.00;;;;;;;9.90;51.31;100674.97;10395617;28;20076;-84
2023/02/20 11:09:09;;;;;;;6.65;3.95;;;;;;;9.90;51.78;100677.56;10385473;28;20103;-84
2023/02/20 11:14:21;;;;;;;7.57;4.18;;;;;;;9.60;50.77;100677.16;10393841;28;20144;-85
2023/02/20 11:19:45;;;;;;;9.25;4.57;;;;;;;9.55;51.12;100672.13;10391400;28;20136;-84
2023/02/20 11:24:50;;;;;;;6.60;4.35;;;;;;;9.54;51.70;100662.56;10395553;28;20498;-84
2023/02/20 11:30:03;;;;;;;8.15;4.22;;;;;;;9.65;50.88;100670.81;10388051;28;20064;-83
2023/02/20 11:35:04;;;;;;;10.13;4.65;;;;;;;9.58;51.50;100656.31;10391292;28;20518;-84
2023/02/20 11:40:31;;;;;;;9.68;4.38;;;;;;;9.77;50.91;100652.94;10389013;28;20552;-84
2023/02/20 11:45:44;;;;;;;9.55;4.28;;;;;;;9.99;50.72;100648.44;10410568;28;20049;-84
2023/02/20 11:50:52;;;;;;;9.95;4.43;;;;;;;10.21;50.04;100644.75;10389221;28;20041;-83
2023/02/20 11:56:14;;;;;;;10.88;4.50;;;;;;;10.24;49.27;100641.13;10391914;28;20059;-82
2023/02/20 12:02:14;;;;;;;10.82;4.50;;;;;;;10.32;49.75;100625.91;10387311;28;20076;-83
2023/02/20 12:07:29;;;;;;;10.95;5.05;;;;;;;10.66;50.24;100626.00;10390768;28;20060;-83
2023/02/20 12:12:34;;;;;;;10.27;4.82;;;;;;;10.66;49.60;100620.78;10383179;28;20057;-83
2023/02/20 12:17:59;;;;;;;10.95;4.72;;;;;;;10.76;48.04;100622.03;10390577;28;20055;-83
2023/02/20 12:23:01;;;;;;;10.52;4.60;;;;;;;11.00;49.34;100604.22;10394713;28;20426;-83
2023/02/20 12:28:30;;;;;;;11.52;4.75;;;;;;;11.14;48.29;100592.16;10406546;28;20054;-82
2023/02/20 12:33:53;;;;;;;9.02;4.63;;;;;;;11.17;48.39;100571.03;10398760;28;20056;-82
2023/02/20 12:39:05;;;;;;;11.00;5.07;;;;;;;11.35;47.96;100571.03;10410826;28;20068;-83
2023/02/20 12:44:24;;;;;;;11.82;4.85;;;;;;;11.45;47.89;100561.75;10397135;28;20049;-82
2023/02/20 12:49:52;;;;;;;9.43;5.18;;;;;;;11.32;46.31;100554.53;10417102;28;20041;-82
2023/02/20 12:55:14;;;;;;;9.52;5.63;;;;;;;11.26;46.24;100547.00;10400055;28;20068;-83
2023/02/20 13:00:43;;;;;;;10.48;5.15;;;;;;;11.49;46.79;100532.69;10404955;28;20061;-82
2023/02/20 13:05:56;;;;;;;12.70;5.65;;;;;;;11.32;46.98;100517.03;10401497;28;20062;-82
2023/02/20 13:11:05;;;;;;;10.32;5.07;;;;;;;11.47;47.09;100502.28;10396642;28;20057;-82
2023/02/20 13:16:22;;;;;;;10.17;5.23;;;;;;;11.62;46.33;100499.66;10395698;28;21149;-82
2023/02/20 13:21:28;;;;;;;10.25;4.90;;;;;;;11.69;46.75;100484.44;10388626;28;20041;-82
2023/02/20 13:26:36;;;;;;;10.38;5.25;;;;;;;11.53;46.46;100470.50;10394294;28;20060;-82
2023/02/20 13:31:45;;;;;;;10.50;5.13;;;;;;;11.58;46.50;100477.16;10391783;28;20065;-82
2023/02/20 13:36:48;;;;;;;6.70;4.25;;;;;;;11.84;47.28;100457.38;10386988;28;20065;-82
2023/02/20 13:41:53;;;;;;;8.93;4.65;;;;;;;11.97;45.87;100458.38;10389172;28;20068;-82
2023/02/20 13:47:01;;;;;;;8.07;4.15;;;;;;;12.00;46.23;100443.31;10404320;28;20154;-81
2023/02/20 13:52:29;;;;;;;9.63;4.70;;;;;;;11.90;46.11;100418.56;10386479;28;20459;-82
2023/02/20 13:57:32;;;;;;;12.23;4.72;;;;;;;12.08;46.42;100428.00;10386769;28;20060;-82
2023/02/20 14:02:40;;;;;;;7.53;3.85;;;;;;;12.18;46.32;100420.44;10389218;28;20415;-82
2023/02/20 14:07:56;;;;;;;9.88;4.22;;;;;;;12.37;46.10;100394.84;10388765;28;20049;-82
2023/02/20 14:13:02;;;;;;;8.32;3.38;;;;;;;12.66;45.83;100387.84;10409282;28;20736;-82
2023/02/20 14:18:17;;;;;;;9.18;3.92;;;;;;;12.74;45.75;100372.47;10388622;28;20164;-82
2023/02/20 14:23:28;;;;;;;8.80;3.72;;;;;;;12.72;46.03;100376.97;10393795;28;21086;-82
2023/02/20 14:28:32;;;;;;;10.73;3.80;;;;;;;12.80;45.97;100370.28;10389283;28;20111;-82
2023/02/20 14:33:34;;;;;;;6.25;3.55;;;;;;;12.79;46.36;100371.25;10394529;28;20057;-82
2023/02/20 14:39:04;;;;;;;9.85;3.90;;;;;;;12.78;46.26;100358.22;10386796;28;20080;-83
2023/02/20 14:44:17;;;;;;;8.18;3.53;;;;;;;12.73;46.46;100360.28;10397029;28;20116;-82
2023/02/20 14:49:52;;;;;;;7.95;3.70;;;;;;;12.61;46.70;100359.25;10389815;28;20096;-82
2023/02/20 14:55:02;;;;;;;9.32;3.35;;;;;;;12.77;46.80;100341.63;10389030;28;20513;-82
2023/02/20 15:00:19;;;;;;;6.83;3.20;;;;;;;12.57;47.67;100339.41;10391092;28;20052;-82
2023/02/20 15:05:31;;;;;;;11.00;3.30;;;;;;;12.63;47.43;100332.91;10406085;28;21223;-82
2023/02/20 15:10:37;;;;;;;9.45;3.35;;;;;;;12.71;48.04;100325.41;10400298;28;20065;-82
2023/02/20 15:15:43;;;;;;;11.52;3.75;;;;;;;12.60;48.29;100328.69;10405810;28;20124;-82
2023/02/20 15:20:49;;;;;;;8.70;3.20;;;;;;;12.52;48.31;100341.44;10393233;28;20064;-82
2023/02/20 15:25:51;;;;;;;8.43;3.45;;;;;;;12.35;49.10;100328.53;10396687;28;20617;-82
2023/02/20 15:31:08;;;;;;;8.20;3.53;;;;;;;12.28;49.11;100340.31;10397489;28;21055;-82
2023/02/20 15:36:16;;;;;;;10.32;3.53;;;;;;;12.38;49.17;100336.19;10411243;28;20060;-82
2023/02/20 15:41:20;;;;;;;8.88;3.22;;;;;;;12.25;49.42;100322.13;10391291;28;20068;-81
2023/02/20 15:46:21;;;;;;;10.45;3.60;;;;;;;11.99;50.01;100321.03;10395518;28;20057;-82
2023/02/20 15:51:24;;;;;;;7.72;3.17;;;;;;;12.18;49.73;100312.06;10394934;28;20103;-82
2023/02/20 15:56:30;;;;;;;7.53;3.47;;;;;;;12.10;49.90;100304.69;10395659;28;20057;-82
2023/02/20 16:01:32;;;;;;;7.53;3.10;;;;;;;11.97;50.22;100285.38;10392413;28;20056;-82
2023/02/20 16:06:35;;;;;;;8.38;3.60;;;;;;;11.96;50.26;100284.53;10394033;28;20056;-82
2023/02/20 16:11:44;;;;;;;8.73;3.47;;;;;;;11.97;50.04;100295.84;10391297;28;20099;-82
2023/02/20 16:16:49;;;;;;;7.05;3.20;;;;;;;11.94;50.47;100296.03;10392089;28;20072;-82
2023/02/20 16:21:51;;;;;;;7.55;3.00;;;;;;;11.67;50.42;100290.66;10394393;28;20080;-82
2023/02/20 16:27:00;;;;;;;8.32;3.55;;;;;;;11.62;50.95;100303.16;10384906;28;20132;-82
2023/02/20 16:32:03;;;;;;;8.50;3.70;;;;;;;11.34;51.30;100305.69;10393224;28;20053;-82
2023/02/20 16:37:09;;;;;;;8.85;3.70;;;;;;;11.23;51.55;100293.19;10393546;28;20057;-84
2023/02/20 16:42:32;;;;;;;8.35;3.47;;;;;;;10.99;52.24;100299.78;10394253;28;20096;-82
2023/02/20 16:47:34;;;;;;;9.43;3.97;;;;;;;10.79;52.59;100300.03;10392701;28;20042;-80
2023/02/20 16:52:37;;;;;;;8.98;4.50;;;;;;;10.73;52.59;100309.97;10392811;28;20057;-80
2023/02/20 16:57:39;;;;;;;9.00;3.92;;;;;;;10.63;52.97;100314.88;10386201;28;20059;-80
2023/02/20 17:02:41;;;;;;;11.38;3.95;;;;;;;10.52;53.17;100310.22;10388553;28;20145;-80
2023/02/20 17:07:43;;;;;;;9.68;4.25;;;;;;;10.39;53.31;100319.66;10390728;28;20053;-80
2023/02/20 17:12:45;;;;;;;10.73;4.47;;;;;;;10.33;53.47;100333.06;10388618;28;20076;-80
2023/02/20 17:17:47;;;;;;;11.38;4.32;;;;;;;10.29;53.40;100322.81;10391488;28;20050;-80
2023/02/20 17:22:50;;;;;;;10.38;4.10;;;;;;;10.24;53.67;100324.81;10391412;28;20141;-80
2023/02/20 17:28:05;;;;;;;10.00;4.78;;;;;;;10.09;54.11;100336.94;10392444;28;20049;-78
2023/02/20 17:33:07;;;;;;;8.30;4.10;;;;;;;10.01;54.13;100348.69;10392992;28;20136;-79
2023/02/20 17:38:08;;;;;;;7.20;3.25;;;;;;;10.02;53.97;100355.59;10391846;28;20506;-78
2023/02/20 17:43:10;;;;;;;10.00;3.63;;;;;;;9.88;54.31;100355.44;10391359;28;20049;-79
2023/02/20 17:48:12;;;;;;;10.23;4.88;;;;;;;9.77;54.49;100365.59;10385552;28;20055;-79
2023/02/20 17:53:13;;;;;;;8.50;4.03;;;;;;;9.68;54.61;100371.28;10389352;28;20049;-78
2023/02/20 17:58:15;;;;;;;8.13;3.95;;;;;;;9.69;54.37;100368.56;10384448;28;20516;-78
2023/02/20 18:03:17;;;;;;;9.60;4.38;;;;;;;9.65;54.25;100374.84;10393813;28;20057;-79
2023/02/20 18:08:19;;;;;;;8.60;3.47;;;;;;;9.54;54.24;100385.78;10404143;28;20080;-79
2023/02/20 18:13:21;;;;;;;8.18;3.88;;;;;;;9.50;54.35;100405.13;10391218;28;20053;-78
2023/02/20 18:18:23;;;;;;;8.23;3.75;;;;;;;9.41;54.23;100410.81;10390410;28;20046;-79
2023/02/20 18:23:25;;;;;;;8.35;3.92;;;;;;;9.32;54.54;100413.84;10390493;28;20050;-79
2023/02/20 18:28:27;;;;;;;11.77;5.00;;;;;;;9.17;54.82;100406.75;10393336;28;20059;-78
2023/02/20 18:33:38;;;;;;;10.70;5.40;;;;;;;8.97;55.28;100408.59;10392972;28;20061;-78
2023/02/20 18:38:40;;;;;;;11.05;4.63;;;;;;;8.89;55.51;100421.97;10393408;28;20050;-79
2023/02/20 18:43:43;;;;;;;12.30;5.97;;;;;;;8.78;56.11;100419.84;10390893;28;20512;-79
2023/02/20 18:48:45;;;;;;;15.35;7.60;;;;;;;8.72;57.90;100414.06;10389003;28;20522;-78
2023/02/20 18:53:47;;;;;;;14.85;7.20;;;;;;;8.71;58.19;100415.81;10389870;28;20053;-79
2023/02/20 18:58:50;;;;;;;17.60;9.23;;;;;;;8.65;58.77;100423.03;10390471;28;20045;-79
2023/02/20 19:03:53;;;;;;;24.20;15.30;;;;;;;8.59;59.47;100428.53;10389372;28;20101;-79
2023/02/20 19:08:55;;;;;;;23.27;12.40;;;;;;;8.50;59.95;100428.94;10390323;28;20444;-78
2023/02/20 19:13:57;;;;;;;21.50;11.77;;;;;;;8.45;60.02;100436.09;10390758;28;20057;-79
2023/02/20 19:18:59;;;;;;;22.73;13.55;;;;;;;8.32;60.84;100443.63;10389559;28;21174;-78
2023/02/20 19:24:02;;;;;;;23.50;14.13;;;;;;;8.18;61.27;100437.28;10389288;28;20069;-79
2023/02/20 19:29:05;;;;;;;26.98;15.80;;;;;;;8.06;61.51;100428.19;10389544;28;20049;-78
2023/02/20 19:34:07;;;;;;;29.13;16.10;;;;;;;8.02;61.64;100432.69;10388719;28;20534;-79
2023/02/20 19:39:09;;;;;;;25.50;15.50;;;;;;;8.01;61.68;100437.94;10388149;28;20557;-78
2023/02/20 19:44:14;;;;;;;32.67;17.35;;;;;;;7.96;61.62;100438.13;10388023;28;20585;-78
2023/02/20 19:49:16;;;;;;;27.50;18.02;;;;;;;7.85;62.10;100453.34;10388035;28;20049;-79
2023/02/20 19:54:28;;;;;;;66.75;34.92;;;;;;;7.80;62.31;100451.84;10389088;28;20060;-78
2023/02/20 19:59:30;;;;;;;45.88;26.65;;;;;;;7.73;62.13;100461.63;10404324;28;20057;-79
2023/02/20 20:04:32;;;;;;;31.65;19.42;;;;;;;7.60;62.38;100462.19;10381489;28;20056;-79
2023/02/20 20:09:34;;;;;;;32.58;18.02;;;;;;;7.53;62.53;100455.56;10386541;28;20059;-79
2023/02/20 20:14:38;;;;;;;33.75;19.25;;;;;;;7.47;62.85;100474.84;10386842;28;20056;-79
2023/02/20 20:19:40;;;;;;;31.25;19.92;;;;;;;7.46;62.75;100454.94;10391353;28;20049;-79
2023/02/20 20:24:58;;;;;;;39.63;23.58;;;;;;;7.37;63.01;100470.88;10382603;28;20128;-79
2023/02/20 20:30:01;;;;;;;34.30;21.58;;;;;;;7.10;63.68;100466.75;10388470;28;20068;-79
2023/02/20 20:35:03;;;;;;;41.60;26.10;;;;;;;7.01;64.44;100454.06;10398149;28;20056;-79
2023/02/20 20:40:07;;;;;;;40.70;25.20;;;;;;;6.96;64.61;100450.75;10403378;28;20518;-79
2023/02/20 20:45:09;;;;;;;42.75;27.27;;;;;;;6.91;64.29;100439.69;10390180;28;20558;-79
2023/02/20 20:50:14;;;;;;;44.13;27.75;;;;;;;6.77;64.83;100447.16;10395460;28;20519;-78
2023/02/20 20:55:16;;;;;;;45.28;29.08;;;;;;;6.78;65.06;100417.66;10396758;28;20054;-79
2023/02/20 21:00:24;;;;;;;41.33;26.90;;;;;;;6.71;64.55;100434.38;10398386;28;20049;-79
2023/02/20 21:05:29;;;;;;;42.33;26.17;;;;;;;6.50;64.96;100433.38;10395102;28;20055;-78
2023/02/20 21:10:32;;;;;;;51.15;31.25;;;;;;;6.49;65.04;100443.84;10395992;28;20530;-79
2023/02/20 21:16:00;;;;;;;47.25;28.80;;;;;;;6.43;65.30;100449.25;10397227;28;20418;-79
2023/02/20 21:21:02;;;;;;;46.05;29.83;;;;;;;6.37;64.91;100452.06;10388308;28;20054;-79
2023/02/20 21:26:04;;;;;;;43.13;26.40;;;;;;;6.12;65.13;100455.44;10396886;28;20055;-79
2023/02/20 21:31:06;;;;;;;43.15;25.30;;;;;;;6.11;65.46;100455.50;10396991;28;20060;-79
2023/02/20 21:36:08;;;;;;;42.58;25.10;;;;;;;6.11;65.41;100453.75;10397539;28;20641;-79
2023/02/20 21:44:25;;;;;;;37.92;23.13;;;;;;;6.02;65.52;100448.03;10394558;28;20055;-79
2023/02/20 21:46:31;;;;;;;43.95;25.15;;;;;;;5.97;65.45;100445.56;10395233;28;20232;-79
2023/02/20 21:51:33;;;;;;;44.92;27.75;;;;;;;6.00;65.65;100447.22;10391983;28;20057;-79
2023/02/20 21:56:34;;;;;;;48.65;27.80;;;;;;;6.00;65.72;100445.44;10394203;28;20054;-79
